Time;durP1;ratioP1;P1;durP2;ratioP2;P2;SDS_P1;SDS_P2;PMS_P1;PMS_P2;Temp;Humidity;BMP_temperature;BMP_pressure;BME280_temperature;BME280_humidity;BME280_pressure;Samples;Min_cycle;Max_cycle;Signal;HPM_P1;HPM_P2
2022/04/21 06:03:16;;;;;;;2.22;1.60;;;;;;;;;;10524945;28;20421;-84
2022/04/21 06:08:17;;;;;;;6.10;2.92;;;;;;;;;;10509328;28;20139;-83
2022/04/21 06:13:18;;;;;;;4.22;2.83;;;;;;;;;;10510268;28;20036;-84
2022/04/21 06:18:19;;;;;;;5.43;2.17;;;;;;;;;;10520615;28;20058;-83
2022/04/21 06:23:21;;;;;;;4.30;2.50;;;;;;;;;;10523490;28;20023;-82
2022/04/21 06:28:22;;;;;;;4.15;2.78;;;;;;;;;;10529042;28;20044;-83
2022/04/21 06:33:23;;;;;;;2.50;2.10;;;;;;;;;;10507125;28;20036;-83
2022/04/21 06:38:24;;;;;;;2.70;2.10;;;;;;;;;;10509094;28;20060;-82
2022/04/21 06:48:45;;;;;;;7.07;3.35;;;;;;;;;;10509210;28;20028;-81
2022/04/21 06:53:46;;;;;;;3.45;2.28;;;;;;;;;;10510385;28;20033;-83
2022/04/21 06:58:47;;;;;;;3.92;2.35;;;;;;;;;;10506835;28;20114;-84
2022/04/21 07:03:48;;;;;;;4.25;2.13;;;;;;;;;;10508466;28;20032;-84
2022/04/21 07:08:49;;;;;;;2.10;1.55;;;;;;;;;;10501873;28;20033;-82
2022/04/21 07:13:51;;;;;;;3.22;1.70;;;;;;;;;;10478414;28;20049;-79
2022/04/21 07:18:53;;;;;;;3.08;2.30;;;;;;;;;;10474819;28;20572;-79
2022/04/21 07:23:54;;;;;;;4.70;2.10;;;;;;;;;;10473735;28;20104;-81
2022/04/21 07:28:56;;;;;;;4.65;2.15;;;;;;;;;;10474413;28;20390;-81
2022/04/21 07:33:57;;;;;;;4.22;2.30;;;;;;;;;;10502231;28;20017;-81
2022/04/21 07:38:58;;;;;;;5.53;3.25;;;;;;;;;;10500560;28;20029;-80
2022/04/21 07:43:59;;;;;;;3.63;2.13;;;;;;;;;;10491886;28;20029;-79
2022/04/21 07:54:20;;;;;;;3.70;2.30;;;;;;;;;;10484326;28;20022;-80
2022/04/21 07:59:21;;;;;;;4.10;2.47;;;;;;;;;;10491404;28;20452;-78
2022/04/21 08:04:22;;;;;;;2.75;1.90;;;;;;;;;;10491014;28;20066;-80
2022/04/21 08:09:23;;;;;;;3.65;2.42;;;;;;;;;;10478205;28;20123;-81
2022/04/21 08:14:24;;;;;;;4.07;2.40;;;;;;;;;;10485498;28;20025;-83
2022/04/21 08:19:25;;;;;;;6.25;2.90;;;;;;;;;;10495797;28;20075;-82
2022/04/21 08:35:06;;;;;;;5.27;3.40;;;;;;;;;;10478168;28;20034;-84
2022/04/21 08:40:08;;;;;;;8.80;6.28;;;;;;;;;;10477092;28;20033;-82
2022/04/21 08:45:10;;;;;;;6.60;3.35;;;;;;;;;;10478335;28;20059;-83
2022/04/21 08:50:12;;;;;;;70.20;22.10;;;;;;;;;;10475129;28;20097;-83
2022/04/21 08:55:13;;;;;;;5.75;2.90;;;;;;;;;;10478989;28;20024;-82
2022/04/21 09:00:14;;;;;;;4.75;3.42;;;;;;;;;;10478935;28;20029;-81
2022/04/21 09:05:15;;;;;;;4.32;2.92;;;;;;;;;;10478782;28;20099;-81
2022/04/21 09:10:17;;;;;;;5.68;2.97;;;;;;;;;;10478527;28;20127;-81
2022/04/21 09:15:19;;;;;;;3.72;2.38;;;;;;;;;;10479624;28;20025;-82
2022/04/21 09:20:21;;;;;;;3.53;2.65;;;;;;;;;;10479577;28;20041;-82
2022/04/21 09:25:24;;;;;;;4.53;2.20;;;;;;;;;;10483419;28;20029;-80
2022/04/21 09:30:27;;;;;;;3.65;2.30;;;;;;;;;;10485762;28;20033;-80
2022/04/21 09:35:51;;;;;;;6.53;4.13;;;;;;;;;;10479668;28;20063;-79
2022/04/21 09:40:55;;;;;;;4.43;3.40;;;;;;;;;;10485605;28;20502;-81
2022/04/21 09:46:12;;;;;;;3.63;2.72;;;;;;;;;;10482516;28;20483;-81
2022/04/21 09:51:17;;;;;;;5.13;2.50;;;;;;;;;;10484014;28;20029;-80
2022/04/21 09:56:19;;;;;;;6.50;3.13;;;;;;;;;;10483404;28;20028;-82
2022/04/21 10:01:20;;;;;;;18.25;16.45;;;;;;;;;;10482946;28;20093;-81
2022/04/21 10:06:22;;;;;;;7.15;3.28;;;;;;;;;;10482328;28;20036;-80
2022/04/21 10:11:27;;;;;;;5.10;2.75;;;;;;;;;;10484637;28;20458;-81
2022/04/21 10:16:28;;;;;;;6.05;3.22;;;;;;;;;;10492641;28;20044;-81
2022/04/21 10:21:31;;;;;;;5.45;2.83;;;;;;;;;;10482042;28;20031;-82
2022/04/21 10:26:42;;;;;;;3.47;2.70;;;;;;;;;;10481045;28;20029;-80
2022/04/21 10:31:46;;;;;;;5.55;3.53;;;;;;;;;;10476253;28;20113;-84
2022/04/21 10:36:47;;;;;;;4.32;3.15;;;;;;;;;;10471375;28;20117;-85
2022/04/21 10:42:05;;;;;;;4.07;2.83;;;;;;;;;;10472761;28;20124;-84
2022/04/21 10:47:25;;;;;;;5.53;2.90;;;;;;;;;;10499109;28;20051;-85
2022/04/21 10:57:37;;;;;;;11.85;3.45;;;;;;;;;;10491326;28;20029;-83
2022/04/21 11:02:39;;;;;;;5.60;2.70;;;;;;;;;;10482748;28;20037;-84
2022/04/21 11:07:56;;;;;;;3.55;2.50;;;;;;;;;;10448866;28;20040;-84
2022/04/21 11:12:57;;;;;;;8.30;2.67;;;;;;;;;;10454827;28;20114;-85
2022/04/21 11:18:10;;;;;;;3.65;2.35;;;;;;;;;;10478024;28;20057;-85
2022/04/21 11:23:25;;;;;;;4.30;2.50;;;;;;;;;;10480514;28;20403;-84
2022/04/21 11:28:30;;;;;;;3.97;2.45;;;;;;;;;;10477510;28;20031;-86
2022/04/21 11:33:33;;;;;;;4.90;2.63;;;;;;;;;;10477738;28;20033;-85
2022/04/21 11:38:39;;;;;;;6.68;2.60;;;;;;;;;;10479832;28;20025;-84
2022/04/21 11:43:48;;;;;;;3.47;2.03;;;;;;;;;;10478277;28;20017;-82
2022/04/21 11:48:57;;;;;;;10.43;4.93;;;;;;;;;;10479088;28;20025;-84
2022/04/21 11:54:08;;;;;;;21.92;8.05;;;;;;;;;;10478434;28;20032;-84
2022/04/21 11:59:10;;;;;;;8.18;3.40;;;;;;;;;;10476192;28;20036;-85
2022/04/21 12:09:34;;;;;;;6.40;3.17;;;;;;;;;;10486218;28;20021;-84
2022/04/21 12:14:36;;;;;;;11.32;3.47;;;;;;;;;;10489426;28;20025;-84
2022/04/21 12:19:44;;;;;;;10.88;3.60;;;;;;;;;;10480216;28;20025;-85
2022/04/21 12:24:53;;;;;;;5.88;2.88;;;;;;;;;;10477883;28;20459;-83
2022/04/21 12:30:01;;;;;;;6.57;3.13;;;;;;;;;;10474680;28;20070;-83
2022/04/21 12:35:07;;;;;;;4.00;2.65;;;;;;;;;;10474587;28;20028;-85
2022/04/21 12:40:09;;;;;;;4.07;3.25;;;;;;;;;;10475021;28;20190;-85
2022/04/21 12:45:11;;;;;;;11.88;6.00;;;;;;;;;;10474287;28;20116;-84
2022/04/21 12:50:19;;;;;;;7.53;4.57;;;;;;;;;;10475801;28;20028;-83
2022/04/21 12:55:20;;;;;;;4.47;3.60;;;;;;;;;;10475190;28;20025;-86
2022/04/21 13:00:21;;;;;;;5.70;3.75;;;;;;;;;;10475193;28;20406;-85
2022/04/21 13:05:22;;;;;;;5.93;4.28;;;;;;;;;;10476603;28;20116;-84
2022/04/21 13:10:24;;;;;;;5.90;3.40;;;;;;;;;;10473117;28;20029;-85
2022/04/21 13:15:25;;;;;;;5.32;3.63;;;;;;;;;;10475765;28;20021;-83
2022/04/21 13:25:46;;;;;;;4.53;3.42;;;;;;;;;;10477667;28;20044;-83
2022/04/21 13:33:21;;;;;;;4.82;3.25;;;;;;;;;;10466935;28;20028;-83
2022/04/21 13:36:12;;;;;;;5.57;4.50;;;;;;;;;;10470771;28;20471;-82
2022/04/21 13:41:13;;;;;;;8.98;5.88;;;;;;;;;;10484825;28;20041;-83
2022/04/21 13:46:15;;;;;;;13.07;7.63;;;;;;;;;;10488431;28;20029;-83
2022/04/21 13:51:16;;;;;;;5.70;4.32;;;;;;;;;;10484699;28;20032;-79
2022/04/21 13:56:18;;;;;;;9.23;5.30;;;;;;;;;;10483524;28;20028;-80
2022/04/21 14:01:21;;;;;;;5.65;3.40;;;;;;;;;;10479487;28;20113;-78
2022/04/21 14:06:24;;;;;;;6.57;4.35;;;;;;;;;;10486575;28;20025;-80
2022/04/21 14:11:25;;;;;;;7.18;4.00;;;;;;;;;;10487937;28;20064;-79
2022/04/21 14:16:26;;;;;;;6.20;3.85;;;;;;;;;;10478629;28;20044;-80
2022/04/21 14:21:27;;;;;;;5.63;4.22;;;;;;;;;;10481997;28;20032;-80
2022/04/21 14:26:28;;;;;;;8.02;3.50;;;;;;;;;;10487648;28;20045;-81
2022/04/21 14:31:29;;;;;;;4.93;3.75;;;;;;;;;;10491367;28;20075;-80
2022/04/21 14:36:30;;;;;;;4.82;2.75;;;;;;;;;;10495041;28;20047;-79
2022/04/21 14:46:51;;;;;;;6.68;3.78;;;;;;;;;;10491267;28;20045;-81
2022/04/21 14:51:52;;;;;;;6.47;3.83;;;;;;;;;;10491598;28;20044;-79
2022/04/21 14:56:53;;;;;;;11.30;4.45;;;;;;;;;;10488909;28;20064;-80
2022/04/21 15:01:54;;;;;;;11.30;7.25;;;;;;;;;;10490494;28;20055;-80
2022/04/21 15:06:55;;;;;;;5.63;3.50;;;;;;;;;;10490760;28;20033;-81
2022/04/21 15:11:56;;;;;;;6.93;4.30;;;;;;;;;;10490229;28;20029;-80
2022/04/21 15:16:58;;;;;;;4.20;3.28;;;;;;;;;;10490422;28;20028;-80
2022/04/21 15:21:59;;;;;;;7.10;4.30;;;;;;;;;;10490474;28;20028;-81
2022/04/21 15:27:00;;;;;;;7.47;3.90;;;;;;;;;;10492364;28;20080;-81
2022/04/21 15:32:01;;;;;;;6.05;4.60;;;;;;;;;;10492212;28;20048;-81
2022/04/21 15:37:02;;;;;;;5.32;3.70;;;;;;;;;;10491167;28;20025;-80
2022/04/21 15:42:03;;;;;;;8.57;3.58;;;;;;;;;;10490112;28;20029;-80
2022/04/21 15:47:04;;;;;;;7.03;4.28;;;;;;;;;;10488468;28;20048;-80
2022/04/21 15:52:05;;;;;;;7.78;4.40;;;;;;;;;;10490620;28;20029;-80
2022/04/21 16:02:26;;;;;;;6.70;4.15;;;;;;;;;;10490152;28;20049;-79
2022/04/21 16:07:27;;;;;;;6.03;4.43;;;;;;;;;;10488967;28;20025;-81
2022/04/21 16:12:28;;;;;;;5.38;4.30;;;;;;;;;;10488180;28;20112;-81
2022/04/21 16:17:29;;;;;;;7.40;2.85;;;;;;;;;;10480566;28;20065;-81
2022/04/21 16:22:30;;;;;;;7.95;6.65;;;;;;;;;;10473600;28;20024;-84
2022/04/21 16:27:31;;;;;;;5.85;3.92;;;;;;;;;;10477944;28;20021;-86
2022/04/21 16:32:32;;;;;;;4.28;3.63;;;;;;;;;;10473461;28;20029;-89
2022/04/21 16:37:34;;;;;;;7.32;3.35;;;;;;;;;;10496950;28;20036;-89
2022/04/21 16:42:41;;;;;;;5.10;3.33;;;;;;;;;;10494018;28;20029;-89
2022/04/21 16:47:42;;;;;;;6.03;3.13;;;;;;;;;;10480339;28;20029;-88
2022/04/21 16:52:43;;;;;;;6.05;3.00;;;;;;;;;;10478812;28;20036;-86
2022/04/21 16:57:44;;;;;;;5.57;2.60;;;;;;;;;;10479790;28;20017;-86
2022/04/21 17:02:54;;;;;;;5.63;3.13;;;;;;;;;;10475905;28;20032;-85
2022/04/21 17:07:55;;;;;;;5.37;2.50;;;;;;;;;;10471591;28;20036;-89
2022/04/21 17:12:56;;;;;;;4.88;3.03;;;;;;;;;;10472744;28;20434;-88
2022/04/21 17:17:57;;;;;;;3.72;2.58;;;;;;;;;;10465258;28;20107;-88
2022/04/21 17:22:59;;;;;;;7.30;2.65;;;;;;;;;;10465205;28;20087;-87
2022/04/21 17:28:00;;;;;;;3.40;2.70;;;;;;;;;;10466372;28;20025;-89
2022/04/21 17:33:02;;;;;;;4.80;3.13;;;;;;;;;;10466723;28;20036;-89
2022/04/21 17:38:03;;;;;;;8.20;4.20;;;;;;;;;;10466278;28;20021;-89
2022/04/21 17:43:04;;;;;;;6.10;3.88;;;;;;;;;;10467379;28;20037;-89
2022/04/21 17:48:05;;;;;;;5.28;3.47;;;;;;;;;;10465535;28;20021;-88
2022/04/21 17:53:06;;;;;;;4.95;3.17;;;;;;;;;;10464547;28;20029;-88
2022/04/21 17:58:07;;;;;;;4.72;2.95;;;;;;;;;;10464582;28;20033;-88
2022/04/21 18:03:08;;;;;;;4.35;2.53;;;;;;;;;;10479201;28;20017;-84
2022/04/21 18:08:09;;;;;;;4.55;2.85;;;;;;;;;;10483890;28;20037;-89
2022/04/21 18:13:10;;;;;;;3.40;2.03;;;;;;;;;;10464247;28;20044;-89
2022/04/21 18:18:11;;;;;;;5.60;3.00;;;;;;;;;;10465383;28;20122;-88
2022/04/21 18:23:12;;;;;;;6.13;3.20;;;;;;;;;;10464848;28;20036;-88
2022/04/21 18:28:13;;;;;;;2.85;2.22;;;;;;;;;;10466257;28;20032;-89
2022/04/21 18:33:14;;;;;;;2.88;2.42;;;;;;;;;;10474279;28;20024;-84
2022/04/21 18:38:15;;;;;;;3.42;2.60;;;;;;;;;;10471718;28;20048;-85
2022/04/21 18:43:17;;;;;;;5.35;3.45;;;;;;;;;;10468755;28;20075;-86
2022/04/21 18:48:18;;;;;;;4.03;2.60;;;;;;;;;;10461827;28;20498;-87
2022/04/21 18:53:20;;;;;;;3.25;2.08;;;;;;;;;;10459739;28;20063;-89
2022/04/21 18:58:24;;;;;;;5.38;2.97;;;;;;;;;;10463803;28;20060;-85
2022/04/21 19:03:25;;;;;;;4.82;3.28;;;;;;;;;;10464494;28;20033;-85
2022/04/21 19:13:46;;;;;;;3.30;1.95;;;;;;;;;;10470681;28;20033;-88
2022/04/21 19:18:47;;;;;;;4.38;2.30;;;;;;;;;;10468211;28;20020;-88
2022/04/21 19:23:48;;;;;;;4.43;2.28;;;;;;;;;;10477738;28;20036;-87
